Time;durP1;ratioP1;P1;durP2;ratioP2;P2;SDS_P1;SDS_P2;PMS_P1;PMS_P2;Temp;Humidity;BMP_temperature;BMP_pressure;BME280_temperature;BME280_humidity;BME280_pressure;Samples;Min_cycle;Max_cycle;Signal;HPM_P1;HPM_P2
2023/06/18 00:00:36;;;;;;;17.83;14.23;;;;;;;15.48;100.00;94518.94;5013866;28;20464;-83
2023/06/18 00:03:02;;;;;;;18.03;15.17;;;;;;;15.54;100.00;94519.84;5014481;28;20433;-84
2023/06/18 00:05:27;;;;;;;17.50;13.48;;;;;;;15.53;100.00;94505.75;5013100;28;20673;-83
2023/06/18 00:07:53;;;;;;;16.08;12.52;;;;;;;15.43;100.00;94461.34;5014185;28;20251;-84
2023/06/18 00:10:18;;;;;;;17.92;12.45;;;;;;;15.46;100.00;94458.19;5014299;28;20175;-84
2023/06/18 00:12:44;;;;;;;16.90;13.18;;;;;;;15.75;100.00;94495.91;5013980;28;20230;-84
2023/06/18 00:15:10;;;;;;;19.65;16.27;;;;;;;15.33;100.00;94476.34;5013553;28;20414;-83
2023/06/18 00:17:35;;;;;;;19.02;15.10;;;;;;;15.53;100.00;94512.91;5014628;28;20188;-84
2023/06/18 00:20:03;;;;;;;22.00;17.83;;;;;;;15.49;100.00;94520.53;5013825;28;20899;-83
2023/06/18 00:22:28;;;;;;;18.85;14.35;;;;;;;15.35;100.00;94476.91;5014573;28;20176;-84
2023/06/18 00:24:54;;;;;;;23.20;16.17;;;;;;;15.67;100.00;94511.47;5014879;28;20161;-84
2023/06/18 00:27:20;;;;;;;18.43;15.40;;;;;;;15.73;100.00;94513.94;5013525;28;20792;-84
2023/06/18 00:29:47;;;;;;;18.70;15.18;;;;;;;15.46;100.00;94474.09;5012856;28;20411;-84
2023/06/18 00:32:15;;;;;;;19.17;13.18;;;;;;;15.49;100.00;94470.13;5013742;28;20176;-84
2023/06/18 00:34:42;;;;;;;18.48;13.15;;;;;;;15.88;100.00;94515.94;5013647;28;20169;-83
2023/06/18 00:37:10;;;;;;;20.15;15.70;;;;;;;15.85;100.00;94519.88;5013065;28;20807;-83
2023/06/18 00:39:38;;;;;;;20.60;15.50;;;;;;;15.85;100.00;94513.78;5013285;28;20855;-83
2023/06/18 00:42:07;;;;;;;17.00;13.38;;;;;;;15.92;100.00;94514.34;5014532;28;20168;-83
2023/06/18 00:44:33;;;;;;;18.05;15.25;;;;;;;15.76;100.00;94486.09;5013848;28;20453;-83
2023/06/18 00:47:00;;;;;;;19.50;16.10;;;;;;;15.87;100.00;94510.88;5013041;28;20513;-83
2023/06/18 00:49:27;;;;;;;21.60;15.52;;;;;;;15.48;100.00;94455.25;5012875;28;20445;-83
2023/06/18 00:51:52;;;;;;;20.77;15.95;;;;;;;15.77;100.00;94508.91;5012430;28;20446;-83
2023/06/18 00:54:18;;;;;;;16.63;14.07;;;;;;;15.65;100.00;94508.28;5011940;28;20470;-84
2023/06/18 00:56:50;;;;;;;17.95;14.07;;;;;;;15.78;100.00;94506.00;5013705;28;20203;-83
2023/06/18 00:59:23;;;;;;;17.73;13.07;;;;;;;15.87;100.00;94503.72;5013919;28;20540;-83
2023/06/18 01:01:51;;;;;;;21.27;16.33;;;;;;;15.89;100.00;94506.91;5012964;28;20411;-83
2023/06/18 01:04:18;;;;;;;16.95;13.70;;;;;;;15.81;100.00;94478.97;5014112;28;20165;-84
2023/06/18 01:06:45;;;;;;;19.80;14.25;;;;;;;16.00;100.00;94502.50;5014105;28;20157;-84
2023/06/18 01:09:12;;;;;;;18.05;13.57;;;;;;;15.61;100.00;94454.91;5013718;28;20599;-83
2023/06/18 01:11:40;;;;;;;16.90;13.60;;;;;;;15.71;100.00;94499.31;5013402;28;20399;-83
2023/06/18 01:14:09;;;;;;;20.33;16.48;;;;;;;15.74;100.00;94509.44;5011928;28;20866;-83
2023/06/18 01:16:37;;;;;;;17.73;14.35;;;;;;;15.62;100.00;94471.63;5011147;28;20192;-83
2023/06/18 01:19:04;;;;;;;21.13;15.50;;;;;;;15.88;100.00;94513.28;5012263;28;20953;-84
2023/06/18 01:21:35;;;;;;;18.92;14.48;;;;;;;15.92;100.00;94508.25;5013188;28;20181;-83
2023/06/18 01:24:11;;;;;;;17.75;13.68;;;;;;;15.98;100.00;94516.03;5014027;28;20156;-83
2023/06/18 01:26:41;;;;;;;20.45;16.10;;;;;;;15.99;100.00;94508.88;5012851;28;20428;-84
2023/06/18 01:29:10;;;;;;;18.98;15.50;;;;;;;15.87;100.00;94502.91;5013164;28;20402;-84
2023/06/18 01:31:36;;;;;;;16.63;13.55;;;;;;;15.97;100.00;94510.97;5012085;28;20172;-84
2023/06/18 01:34:03;;;;;;;24.03;17.57;;;;;;;15.77;100.00;94508.91;5012325;28;20811;-84
2023/06/18 01:36:47;;;;;;;20.45;15.15;;;;;;;15.80;100.00;94508.44;5013428;28;20192;-83
2023/06/18 01:39:25;;;;;;;17.75;14.02;;;;;;;15.56;100.00;94491.22;5013231;28;20157;-84
2023/06/18 01:41:58;;;;;;;20.33;16.75;;;;;;;15.65;100.00;94505.63;5011249;28;20472;-83
2023/06/18 01:44:26;;;;;;;17.75;14.93;;;;;;;15.48;100.00;94513.63;5013385;28;20244;-83
2023/06/18 01:46:54;;;;;;;23.35;16.65;;;;;;;15.23;100.00;94487.63;5012784;28;20418;-83
2023/06/18 01:49:21;;;;;;;21.52;15.05;;;;;;;15.52;100.00;94517.41;5011175;28;20216;-83
2023/06/18 01:51:50;;;;;;;19.80;14.75;;;;;;;15.33;100.00;94479.78;5012540;28;20243;-85
2023/06/18 01:54:17;;;;;;;20.15;15.82;;;;;;;15.29;100.00;94480.56;5012339;28;20931;-85
2023/06/18 01:56:43;;;;;;;22.70;18.83;;;;;;;15.35;100.00;94509.53;5011573;28;20793;-84
2023/06/18 01:59:11;;;;;;;25.08;16.52;;;;;;;15.37;100.00;94488.06;5010492;28;20225;-85
2023/06/18 02:01:40;;;;;;;21.05;15.70;;;;;;;15.45;100.00;94493.72;5012288;28;20177;-85
2023/06/18 02:04:05;;;;;;;18.88;15.13;;;;;;;15.67;100.00;94522.88;5012419;28;20168;-85
2023/06/18 02:06:31;;;;;;;22.63;18.02;;;;;;;15.31;100.00;94481.09;5010933;28;20429;-85
2023/06/18 02:08:56;;;;;;;21.80;18.87;;;;;;;14.97;100.00;94456.56;5011583;28;20406;-85
2023/06/18 02:11:22;;;;;;;24.30;17.58;;;;;;;14.95;100.00;94466.66;5012719;28;20164;-85
2023/06/18 02:13:47;;;;;;;25.17;17.95;;;;;;;15.35;100.00;94520.13;5012928;28;20543;-85
2023/06/18 02:16:13;;;;;;;21.38;16.48;;;;;;;15.52;100.00;94516.59;5011221;28;20298;-85
2023/06/18 02:18:38;;;;;;;25.47;16.70;;;;;;;15.57;100.00;94522.78;5011216;28;20381;-85
2023/06/18 02:21:04;;;;;;;21.05;15.77;;;;;;;15.42;100.00;94494.22;5012542;28;20255;-85
2023/06/18 02:23:29;;;;;;;22.33;19.07;;;;;;;15.48;100.00;94501.16;5011652;28;20410;-84
2023/06/18 02:25:56;;;;;;;21.13;16.90;;;;;;;15.22;100.00;94462.16;5013047;28;20148;-85
2023/06/18 02:28:22;;;;;;;21.27;16.90;;;;;;;15.33;100.00;94486.94;5011990;28;20559;-85
2023/06/18 02:30:47;;;;;;;21.90;17.08;;;;;;;15.25;100.00;94474.13;5011960;28;20183;-85
2023/06/18 02:33:16;;;;;;;23.60;19.40;;;;;;;15.48;100.00;94516.28;5010859;28;20418;-85
2023/06/18 02:35:41;;;;;;;24.63;18.10;;;;;;;15.24;100.00;94451.31;5011971;28;20649;-85
2023/06/18 02:38:07;;;;;;;24.58;16.35;;;;;;;15.69;100.00;94517.34;5012264;28;20188;-85
2023/06/18 02:40:32;;;;;;;21.90;15.60;;;;;;;15.85;100.00;94529.69;5012420;28;20596;-85
2023/06/18 02:42:58;;;;;;;20.67;15.63;;;;;;;15.75;100.00;94508.34;5011844;28;20180;-86
2023/06/18 02:45:25;;;;;;;21.95;15.90;;;;;;;15.96;100.00;94533.25;5010563;28;20645;-86
2023/06/18 02:47:51;;;;;;;24.92;19.30;;;;;;;15.92;100.00;94540.09;5010723;28;20480;-85
2023/06/18 02:50:18;;;;;;;24.10;16.65;;;;;;;15.51;100.00;94473.34;5011835;28;20232;-86
2023/06/18 02:52:48;;;;;;;22.90;17.52;;;;;;;15.75;100.00;94533.06;5012487;28;20489;-85
2023/06/18 02:55:14;;;;;;;22.23;16.50;;;;;;;15.72;100.00;94533.56;5012173;28;20180;-85
2023/06/18 02:57:40;;;;;;;23.02;18.65;;;;;;;15.65;100.00;94532.16;5011588;28;20430;-85
2023/06/18 03:00:11;;;;;;;23.38;19.65;;;;;;;15.44;100.00;94523.16;5009850;28;20407;-85
2023/06/18 03:02:38;;;;;;;23.80;17.17;;;;;;;15.51;100.00;94520.28;5012117;28;20149;-85
2023/06/18 03:05:04;;;;;;;22.80;19.33;;;;;;;15.42;100.00;94526.03;5010952;28;20414;-85
2023/06/18 03:07:29;;;;;;;25.63;19.48;;;;;;;15.49;100.00;94531.97;5011854;28;20484;-85
2023/06/18 03:09:55;;;;;;;27.20;19.27;;;;;;;15.44;100.00;94526.59;5011411;28;20423;-85
2023/06/18 03:12:20;;;;;;;22.03;18.27;;;;;;;15.32;100.00;94496.75;5011858;28;20438;-85
2023/06/18 03:14:46;;;;;;;21.92;16.23;;;;;;;15.64;100.00;94541.97;5012268;28;20160;-85
2023/06/18 03:17:12;;;;;;;21.17;16.42;;;;;;;15.49;100.00;94520.53;5011835;28;20334;-85
2023/06/18 03:19:37;;;;;;;21.67;17.75;;;;;;;15.57;100.00;94535.28;5011399;28;20406;-85
2023/06/18 03:22:03;;;;;;;22.93;18.70;;;;;;;15.55;100.00;94538.16;5011597;28;20783;-86
2023/06/18 03:24:29;;;;;;;22.77;18.73;;;;;;;15.48;100.00;94542.81;5010647;28;20457;-85
2023/06/18 03:26:57;;;;;;;22.70;16.38;;;;;;;15.33;100.00;94479.78;5026558;28;20173;-86
2023/06/18 03:29:25;;;;;;;18.45;15.32;;;;;;;15.84;100.00;94544.81;5011489;28;20564;-85
2023/06/18 03:31:51;;;;;;;20.63;15.15;;;;;;;15.85;100.00;94542.97;5011526;28;20259;-85
2023/06/18 03:34:20;;;;;;;19.92;17.60;;;;;;;15.62;100.00;94528.16;5011605;28;20407;-85
2023/06/18 03:36:46;;;;;;;21.73;16.42;;;;;;;15.68;100.00;94536.97;5011601;28;20593;-85
2023/06/18 03:39:12;;;;;;;21.35;15.45;;;;;;;15.38;100.00;94495.78;5012353;28;20614;-86
2023/06/18 03:41:38;;;;;;;21.13;18.23;;;;;;;15.83;100.00;94545.88;5014413;28;20434;-86
2023/06/18 03:44:03;;;;;;;19.23;15.13;;;;;;;15.90;100.00;94534.25;5015211;28;20196;-86
2023/06/18 03:46:30;;;;;;;21.37;17.33;;;;;;;15.95;100.00;94553.69;5015070;28;20429;-87
2023/06/18 03:48:55;;;;;;;20.73;18.25;;;;;;;15.58;100.00;94510.31;5014022;28;20442;-89
2023/06/18 03:51:21;;;;;;;21.30;16.08;;;;;;;15.88;100.00;94546.97;5013864;28;20173;-87
2023/06/18 03:53:46;;;;;;;20.00;15.82;;;;;;;15.86;100.00;94531.31;5014988;28;20172;-86
2023/06/18 03:56:11;;;;;;;19.77;14.90;;;;;;;16.01;100.00;94557.19;5013756;28;20228;-87
2023/06/18 03:58:37;;;;;;;22.65;14.73;;;;;;;15.69;100.00;94496.91;5013741;28;20262;-87
2023/06/18 04:01:02;;;;;;;21.57;18.03;;;;;;;15.69;100.00;94501.41;5013994;28;20417;-87
2023/06/18 04:03:28;;;;;;;25.00;16.48;;;;;;;15.80;100.00;94519.03;5014623;28;20222;-87
2023/06/18 04:05:53;;;;;;;22.38;15.43;;;;;;;16.09;100.00;94560.19;5013638;28;20562;-87
2023/06/18 04:08:19;;;;;;;22.00;16.05;;;;;;;16.14;100.00;94562.09;5014324;28;20181;-87
2023/06/18 04:10:45;;;;;;;23.53;19.30;;;;;;;15.77;100.00;94535.47;5013408;28;20418;-86
2023/06/18 04:13:15;;;;;;;22.83;19.15;;;;;;;15.92;100.00;94561.34;5013605;28;20914;-85
2023/06/18 04:15:41;;;;;;;22.88;19.20;;;;;;;15.88;100.00;94558.41;5012331;28;20414;-88
2023/06/18 04:18:07;;;;;;;22.98;20.00;;;;;;;15.93;100.00;94555.78;5013855;28;20835;-83
2023/06/18 04:20:32;;;;;;;21.08;17.65;;;;;;;16.09;100.00;94562.84;5014327;28;20177;-85
2023/06/18 04:22:58;;;;;;;20.10;15.98;;;;;;;16.25;100.00;94561.13;5029587;28;20169;-86
2023/06/18 04:25:23;;;;;;;22.02;16.50;;;;;;;15.98;100.00;94521.34;5012989;28;20552;-86
2023/06/18 04:27:49;;;;;;;22.58;17.58;;;;;;;16.18;100.00;94532.13;5014471;28;20174;-86
2023/06/18 04:30:14;;;;;;;30.73;23.35;;;;;;;16.35;100.00;94568.38;5014558;28;20188;-86
2023/06/18 04:32:40;;;;;;;34.40;26.50;;;;;;;16.46;100.00;94572.72;5014056;28;20649;-82
2023/06/18 04:35:06;;;;;;;33.60;25.43;;;;;;;16.33;100.00;94570.50;5013773;28;20410;-82
2023/06/18 04:37:31;;;;;;;24.73;19.60;;;;;;;16.33;100.00;94570.50;5014024;28;20192;-82
2023/06/18 04:39:56;;;;;;;24.43;17.57;;;;;;;16.33;100.00;94567.84;5013812;28;20100;-82
2023/06/18 04:42:22;;;;;;;25.60;18.27;;;;;;;16.35;100.00;94563.84;5013929;28;20177;-84
2023/06/18 04:44:47;;;;;;;27.30;20.48;;;;;;;16.30;100.00;94558.50;5028930;28;20203;-82
2023/06/18 04:47:13;;;;;;;24.80;20.50;;;;;;;16.38;100.00;94573.19;5028925;28;20169;-82
2023/06/18 04:49:38;;;;;;;26.70;19.50;;;;;;;16.48;100.00;94578.59;5013757;28;20760;-83
2023/06/18 04:52:04;;;;;;;30.10;24.33;;;;;;;16.44;100.00;94577.47;5011751;28;20410;-82
2023/06/18 04:54:29;;;;;;;31.23;20.13;;;;;;;16.44;100.00;94585.44;5013567;28;20649;-83
2023/06/18 04:56:57;;;;;;;24.38;19.58;;;;;;;16.46;100.00;94586.00;5013666;28;20199;-83
2023/06/18 04:59:22;;;;;;;24.05;17.52;;;;;;;16.34;100.00;94548.19;5013606;28;20180;-83
2023/06/18 05:01:49;;;;;;;20.20;15.40;;;;;;;16.51;100.00;94591.38;5014481;28;20218;-83
2023/06/18 05:04:14;;;;;;;20.85;15.50;;;;;;;16.51;100.00;94589.53;5013878;28;20161;-82
2023/06/18 05:06:39;;;;;;;18.58;14.60;;;;;;;16.54;100.00;94589.00;5013732;28;20707;-82
2023/06/18 05:09:05;;;;;;;21.50;15.77;;;;;;;16.59;100.00;94580.28;5014108;28;20191;-82
2023/06/18 05:11:30;;;;;;;19.83;15.45;;;;;;;16.79;100.00;94611.53;5013938;28;20692;-82
2023/06/18 05:13:55;;;;;;;20.85;15.18;;;;;;;16.83;100.00;94618.75;5013601;28;20200;-82
2023/06/18 05:16:21;;;;;;;18.35;15.35;;;;;;;16.53;100.00;94563.47;5013581;28;20535;-82
2023/06/18 05:18:46;;;;;;;23.77;15.25;;;;;;;16.90;100.00;94616.66;5013859;28;20195;-82
2023/06/18 05:21:11;;;;;;;20.80;16.38;;;;;;;16.60;100.00;94576.56;5013584;28;20180;-83
2023/06/18 05:23:37;;;;;;;21.52;17.58;;;;;;;16.80;100.00;94621.91;5012381;28;20489;-83
2023/06/18 05:26:02;;;;;;;18.92;14.32;;;;;;;16.67;100.00;94598.44;5013712;28;20231;-83
2023/06/18 05:28:28;;;;;;;21.80;14.48;;;;;;;16.81;100.00;94620.88;5013264;28;20263;-81
2023/06/18 05:30:53;;;;;;;16.75;14.30;;;;;;;16.88;100.00;94629.41;5012955;28;20231;-80
2023/06/18 05:33:18;;;;;;;21.92;16.15;;;;;;;16.91;100.00;94639.56;5013004;28;20259;-80
2023/06/18 05:35:45;;;;;;;21.05;14.70;;;;;;;16.97;100.00;94643.03;5012957;28;21559;-84
2023/06/18 05:38:10;;;;;;;20.20;15.02;;;;;;;17.00;100.00;94641.72;5012536;28;20208;-83
2023/06/18 05:40:35;;;;;;;21.27;15.65;;;;;;;16.96;100.00;94634.25;5012677;28;20169;-83
2023/06/18 05:43:01;;;;;;;20.08;15.55;;;;;;;16.77;100.00;94617.13;5012952;28;20172;-83
2023/06/18 05:45:26;;;;;;;19.40;14.93;;;;;;;16.97;100.00;94645.69;5012469;28;20689;-82
2023/06/18 05:47:51;;;;;;;18.05;14.48;;;;;;;16.90;100.00;94650.44;5012407;28;20180;-82
2023/06/18 05:50:17;;;;;;;20.02;14.05;;;;;;;16.86;100.00;94647.50;5012590;28;20212;-81
2023/06/18 05:52:42;;;;;;;22.00;17.10;;;;;;;16.91;100.00;94650.19;5011785;28;20784;-82
2023/06/18 05:55:08;;;;;;;18.80;16.05;;;;;;;16.83;100.00;94633.91;5012762;28;20188;-82
2023/06/18 05:57:33;;;;;;;20.00;17.42;;;;;;;16.88;100.00;94660.53;5012089;28;20430;-82
2023/06/18 05:59:58;;;;;;;18.50;15.35;;;;;;;16.99;100.00;94672.84;5012877;28;20168;-82
2023/06/18 06:02:24;;;;;;;17.65;14.07;;;;;;;17.09;100.00;94664.13;5012039;28;20188;-82
2023/06/18 06:04:49;;;;;;;20.70;16.05;;;;;;;17.14;100.00;94659.66;5007997;28;20192;-82
2023/06/18 06:07:15;;;;;;;18.20;14.00;;;;;;;17.07;100.00;94648.44;5007661;28;20692;-82
2023/06/18 06:09:40;;;;;;;17.38;15.13;;;;;;;17.16;100.00;94662.06;5008328;28;20176;-82
2023/06/18 06:12:08;;;;;;;18.15;14.40;;;;;;;17.24;100.00;94670.34;5007745;28;20176;-82
2023/06/18 06:14:33;;;;;;;18.25;14.07;;;;;;;16.98;100.00;94626.84;5006176;28;20676;-82
2023/06/18 06:16:59;;;;;;;18.23;13.60;;;;;;;17.15;100.00;94652.47;5008392;28;20188;-82
2023/06/18 06:19:25;;;;;;;17.02;13.02;;;;;;;17.32;100.00;94683.19;5007810;28;20222;-83
2023/06/18 06:21:50;;;;;;;16.65;13.85;;;;;;;17.31;100.00;94683.44;5008742;28;20680;-82
2023/06/18 06:24:16;;;;;;;16.50;12.73;;;;;;;17.31;100.00;94672.78;5008451;28;20255;-82
2023/06/18 06:26:41;;;;;;;17.48;14.10;;;;;;;17.13;100.00;94676.66;5009572;28;20172;-82
2023/06/18 06:29:07;;;;;;;23.85;14.52;;;;;;;17.16;100.00;94692.13;5009686;28;20172;-82
2023/06/18 06:31:32;;;;;;;16.83;13.70;;;;;;;17.14;100.00;94670.28;5009730;28;20188;-82
2023/06/18 06:33:57;;;;;;;18.02;13.32;;;;;;;17.28;100.00;94705.25;5009794;28;20254;-82
2023/06/18 06:36:23;;;;;;;17.92;13.20;;;;;;;17.06;100.00;94654.81;5009718;28;20677;-82
2023/06/18 06:38:49;;;;;;;21.95;14.10;;;;;;;17.11;100.00;94667.34;5009770;28;20180;-82
2023/06/18 06:41:14;;;;;;;16.25;12.20;;;;;;;17.22;100.00;94698.28;5009460;28;20176;-82
2023/06/18 06:43:39;;;;;;;17.67;13.00;;;;;;;17.24;100.00;94698.81;5009507;28;20632;-82
2023/06/18 06:46:05;;;;;;;16.58;14.02;;;;;;;17.37;100.00;94703.72;5009386;28;20784;-83
2023/06/18 06:48:30;;;;;;;15.32;12.77;;;;;;;17.47;100.00;94701.09;5009371;28;20183;-83
2023/06/18 06:50:56;;;;;;;16.33;13.07;;;;;;;17.46;100.00;94688.88;5009516;28;20172;-82
2023/06/18 06:53:21;;;;;;;20.30;12.98;;;;;;;17.56;100.00;94686.25;5009571;28;20174;-82
2023/06/18 06:55:47;;;;;;;13.13;11.73;;;;;;;17.80;100.00;94712.50;5009375;28;20661;-82
2023/06/18 06:58:13;;;;;;;18.23;12.30;;;;;;;17.83;100.00;94715.44;5009488;28;20219;-83
2023/06/18 07:00:38;;;;;;;14.55;12.10;;;;;;;17.90;100.00;94696.59;5009541;28;20866;-83
2023/06/18 07:03:04;;;;;;;16.67;11.80;;;;;;;18.13;100.00;94709.44;5009514;28;20181;-83
2023/06/18 07:05:30;;;;;;;15.80;11.40;;;;;;;18.17;99.34;94718.50;5009229;28;20172;-83
2023/06/18 07:07:56;;;;;;;14.90;11.05;;;;;;;18.23;99.26;94717.47;5010945;28;20664;-81
2023/06/18 07:10:21;;;;;;;14.90;11.50;;;;;;;18.08;100.00;94680.09;5011638;28;20168;-82
2023/06/18 07:12:50;;;;;;;14.85;11.55;;;;;;;18.43;99.55;94712.19;5011444;28;20935;-83
2023/06/18 07:15:16;;;;;;;17.55;11.35;;;;;;;18.21;99.23;94674.31;5012617;28;20195;-85
2023/06/18 07:17:41;;;;;;;13.38;11.18;;;;;;;18.60;99.01;94724.53;5015256;28;20184;-82
2023/06/18 07:20:07;;;;;;;16.85;12.43;;;;;;;18.60;98.19;94712.00;5014987;28;20226;-83
2023/06/18 07:22:33;;;;;;;16.67;11.80;;;;;;;18.72;98.17;94717.88;5012902;28;20222;-82
2023/06/18 07:24:58;;;;;;;12.80;11.07;;;;;;;18.71;97.50;94702.16;5013729;28;20231;-85
2023/06/18 07:27:24;;;;;;;13.65;11.18;;;;;;;19.01;96.54;94730.72;5015017;28;20319;-84
2023/06/18 07:29:50;;;;;;;13.70;10.70;;;;;;;19.10;95.28;94735.28;5013477;28;20302;-83
2023/06/18 07:32:16;;;;;;;10.70;9.27;;;;;;;19.08;93.84;94724.06;5014587;28;20172;-83
2023/06/18 07:34:42;;;;;;;10.70;9.38;;;;;;;19.12;92.60;94735.78;5013407;28;20184;-81
2023/06/18 07:37:07;;;;;;;12.65;9.38;;;;;;;18.98;92.96;94716.06;5014502;28;20286;-84
2023/06/18 07:39:32;;;;;;;14.05;9.88;;;;;;;18.79;92.15;94699.75;5029904;28;20238;-83
2023/06/18 07:41:58;;;;;;;11.95;9.25;;;;;;;18.56;92.51;94673.56;5014796;28;20173;-83
2023/06/18 07:44:23;;;;;;;12.48;9.07;;;;;;;18.74;92.66;94713.09;5014288;28;20183;-84
2023/06/18 07:46:50;;;;;;;12.55;9.25;;;;;;;18.53;92.85;94683.94;5014758;28;20169;-84
2023/06/18 07:49:16;;;;;;;12.13;9.98;;;;;;;18.70;93.44;94712.00;5014303;28;20292;-83
2023/06/18 07:51:42;;;;;;;14.38;9.63;;;;;;;18.65;93.57;94717.34;5014304;28;20161;-84
2023/06/18 07:54:08;;;;;;;14.48;9.73;;;;;;;18.71;94.38;94731.47;5013068;28;20661;-83
2023/06/18 07:56:33;;;;;;;13.75;9.27;;;;;;;18.54;95.51;94704.22;5014526;28;20216;-86
2023/06/18 07:58:58;;;;;;;16.30;9.95;;;;;;;18.60;95.34;94705.84;5014235;28;20176;-87
2023/06/18 08:01:24;;;;;;;15.10;9.90;;;;;;;18.81;94.06;94739.50;5029956;28;20184;-86
2023/06/18 08:03:49;;;;;;;11.98;9.80;;;;;;;18.69;93.76;94725.59;5013147;28;20200;-85
2023/06/18 08:06:15;;;;;;;9.75;8.52;;;;;;;18.74;93.60;94750.44;5012720;28;20168;-87
2023/06/18 08:08:40;;;;;;;11.75;9.82;;;;;;;18.81;93.56;94766.19;5029149;28;20626;-83
2023/06/18 08:11:06;;;;;;;15.13;9.27;;;;;;;18.83;94.14;94769.41;5012863;28;20210;-83
2023/06/18 08:13:31;;;;;;;12.80;9.02;;;;;;;18.87;94.02;94774.97;5014057;28;20613;-82
2023/06/18 08:15:56;;;;;;;11.35;8.73;;;;;;;18.54;93.78;94722.88;5014225;28;20179;-83
2023/06/18 08:18:22;;;;;;;10.88;8.60;;;;;;;18.74;93.52;94754.97;5012849;28;20188;-86
2023/06/18 08:20:48;;;;;;;11.27;7.88;;;;;;;18.84;93.15;94765.66;5012903;28;20184;-86
2023/06/18 08:23:15;;;;;;;12.60;8.52;;;;;;;18.67;93.25;94735.75;5013788;28;20173;-84
2023/06/18 08:25:40;;;;;;;9.68;8.48;;;;;;;18.49;91.70;94715.69;5014220;28;20164;-86
2023/06/18 08:28:06;;;;;;;12.05;8.50;;;;;;;18.90;92.31;94787.81;5029461;28;20609;-88
2023/06/18 08:30:32;;;;;;;10.05;8.75;;;;;;;18.81;91.63;94782.19;5013000;28;20230;-89
2023/06/18 08:32:57;;;;;;;11.07;9.75;;;;;;;18.80;92.81;94792.06;5013735;28;20646;-89
2023/06/18 08:35:23;;;;;;;10.07;8.75;;;;;;;18.38;92.82;94714.84;5012343;28;20176;-88
2023/06/18 08:37:48;;;;;;;13.35;9.45;;;;;;;18.91;93.19;94790.22;5013308;28;20195;-87
2023/06/18 08:40:14;;;;;;;17.67;8.93;;;;;;;18.79;93.48;94766.44;5012585;28;20169;-87
2023/06/18 08:42:40;;;;;;;16.52;9.45;;;;;;;18.48;93.95;94709.56;5012141;28;20181;-88
2023/06/18 08:45:07;;;;;;;9.40;8.38;;;;;;;19.16;92.70;94795.59;5013334;28;20188;-88
2023/06/18 08:47:33;;;;;;;11.95;9.43;;;;;;;19.15;92.38;94771.81;5014051;28;20234;-85
2023/06/18 08:49:59;;;;;;;11.55;9.45;;;;;;;19.35;91.56;94795.06;5011877;28;20311;-85
2023/06/18 08:52:29;;;;;;;13.18;9.02;;;;;;;19.45;91.58;94803.09;5013573;28;20649;-86
2023/06/18 08:55:00;;;;;;;15.63;8.93;;;;;;;19.19;91.78;94743.56;5012121;28;20263;-86
2023/06/18 08:57:37;;;;;;;12.82;8.63;;;;;;;19.69;91.16;94801.50;5012244;28;20188;-88
2023/06/18 09:00:04;;;;;;;10.65;8.25;;;;;;;19.63;91.48;94759.84;5012240;28;20711;-88
2023/06/18 09:02:30;;;;;;;16.60;8.13;;;;;;;19.69;90.76;94747.28;5011930;28;20176;-86
2023/06/18 09:04:56;;;;;;;10.15;8.75;;;;;;;19.70;89.91;94744.34;5012906;28;20661;-86
2023/06/18 09:07:23;;;;;;;13.63;8.20;;;;;;;20.04;88.79;94783.81;5011434;28;20183;-86
2023/06/18 09:09:49;;;;;;;10.05;7.97;;;;;;;20.16;88.56;94785.09;5010653;28;20200;-85
2023/06/18 09:12:14;;;;;;;11.93;8.60;;;;;;;20.04;87.97;94773.91;5010841;28;20266;-86
2023/06/18 09:14:39;;;;;;;13.68;8.82;;;;;;;20.32;89.62;94807.25;5013186;28;20319;-87
2023/06/18 09:17:05;;;;;;;8.98;7.70;;;;;;;20.32;88.08;94802.69;5013231;28;20703;-86
2023/06/18 09:19:32;;;;;;;11.48;7.45;;;;;;;20.32;87.13;94807.25;5013481;28;20254;-86
2023/06/18 09:22:12;;;;;;;10.40;7.50;;;;;;;19.97;86.97;94744.00;5013029;28;20179;-86
2023/06/18 09:24:37;;;;;;;11.85;8.77;;;;;;;20.03;87.52;94752.78;5012003;28;20683;-85
2023/06/18 09:27:05;;;;;;;10.63;8.07;;;;;;;20.41;88.44;94799.50;5011984;28;20164;-87
2023/06/18 09:29:35;;;;;;;9.20;8.02;;;;;;;20.52;87.94;94803.72;5012877;28;20215;-87
2023/06/18 09:32:13;;;;;;;10.45;7.45;;;;;;;20.59;87.19;94801.53;5011247;28;20176;-85
2023/06/18 09:34:39;;;;;;;8.93;8.00;;;;;;;20.65;86.68;94805.81;5012619;28;20200;-86
2023/06/18 09:37:06;;;;;;;11.15;7.38;;;;;;;20.73;86.07;94807.09;5012609;28;20251;-86
2023/06/18 09:39:33;;;;;;;10.88;8.50;;;;;;;20.78;85.99;94809.75;5012361;28;20168;-85
2023/06/18 09:42:06;;;;;;;11.98;8.45;;;;;;;20.71;86.04;94789.44;5012683;28;20169;-87
2023/06/18 09:44:33;;;;;;;12.90;6.97;;;;;;;20.76;84.49;94790.50;5011303;28;20881;-85
2023/06/18 09:46:59;;;;;;;9.13;7.22;;;;;;;20.51;84.02;94800.22;5011116;28;20176;-86
2023/06/18 09:49:26;;;;;;;9.50;7.70;;;;;;;20.13;84.66;94790.19;5012177;28;20239;-85
2023/06/18 09:51:53;;;;;;;9.65;7.95;;;;;;;20.18;85.56;94800.84;5012568;28;20184;-85
2023/06/18 09:54:19;;;;;;;10.60;6.97;;;;;;;20.05;87.26;94772.03;5011163;28;20615;-85
2023/06/18 09:56:58;;;;;;;9.75;7.18;;;;;;;19.94;83.87;94804.13;5010744;28;20214;-86
2023/06/18 09:59:24;;;;;;;13.55;7.82;;;;;;;19.74;85.02;94798.00;5010896;28;20539;-88
2023/06/18 10:01:50;;;;;;;17.67;7.40;;;;;;;19.84;87.19;94800.66;5012186;28;20176;-84
2023/06/18 10:04:16;;;;;;;7.50;6.05;;;;;;;20.01;87.58;94800.38;5012481;28;20243;-85
2023/06/18 10:06:49;;;;;;;10.85;6.97;;;;;;;20.13;87.90;94803.56;5012277;28;20251;-86
2023/06/18 10:09:16;;;;;;;8.02;6.55;;;;;;;19.98;88.73;94750.16;5012396;28;20238;-85
2023/06/18 10:11:43;;;;;;;10.48;7.57;;;;;;;20.29;86.54;94794.41;5012522;28;20172;-85
2023/06/18 10:14:13;;;;;;;9.75;6.80;;;;;;;20.47;87.15;94804.53;5011049;28;20180;-86
2023/06/18 10:16:45;;;;;;;7.68;6.28;;;;;;;20.59;85.88;94805.00;5007541;28;20204;-86
2023/06/18 10:19:24;;;;;;;7.32;6.53;;;;;;;20.63;84.97;94792.69;5026422;28;20660;-85
2023/06/18 10:22:01;;;;;;;8.52;6.93;;;;;;;20.70;85.39;94789.72;5010744;28;20176;-85
2023/06/18 10:24:48;;;;;;;9.82;6.88;;;;;;;20.82;85.16;94792.88;5012025;28;20168;-86
2023/06/18 10:27:14;;;;;;;8.27;6.60;;;;;;;20.92;86.09;94782.13;5011833;28;20180;-84
2023/06/18 10:29:41;;;;;;;6.63;5.72;;;;;;;21.17;85.81;94799.94;5012225;28;20251;-84
2023/06/18 10:32:06;;;;;;;7.80;6.28;;;;;;;20.88;82.14;94761.53;5011859;28;20255;-85
2023/06/18 10:34:32;;;;;;;7.07;6.10;;;;;;;21.01;83.48;94764.41;5011984;28;20260;-86
2023/06/18 10:36:59;;;;;;;7.55;6.20;;;;;;;21.37;83.96;94799.75;5011979;28;20728;-86
2023/06/18 10:39:25;;;;;;;7.57;6.30;;;;;;;21.55;85.31;94771.50;5012141;28;20168;-83
2023/06/18 10:42:00;;;;;;;7.03;6.07;;;;;;;21.77;81.56;94789.81;5010511;28;20215;-85
2023/06/18 10:44:53;;;;;;;7.57;6.28;;;;;;;21.81;81.58;94788.16;5011746;28;20160;-85
2023/06/18 10:47:29;;;;;;;7.68;6.25;;;;;;;21.77;81.04;94779.09;5009733;28;20665;-85
2023/06/18 10:50:07;;;;;;;7.90;5.97;;;;;;;21.74;81.66;94785.81;5012530;28;20731;-86
2023/06/18 10:52:40;;;;;;;7.75;6.10;;;;;;;21.74;79.95;94768.91;5015666;28;20187;-86
2023/06/18 10:55:18;;;;;;;9.98;6.10;;;;;;;21.53;81.18;94788.94;5014028;28;20259;-87
2023/06/18 10:57:50;;;;;;;8.48;5.85;;;;;;;21.49;82.08;94782.53;5013503;28;20199;-84
2023/06/18 11:00:24;;;;;;;5.85;5.25;;;;;;;21.49;82.73;94769.94;5014950;28;20180;-84
2023/06/18 11:02:58;;;;;;;5.68;5.05;;;;;;;21.43;80.16;94773.75;5013084;28;20179;-84
2023/06/18 11:05:32;;;;;;;6.95;5.57;;;;;;;21.32;81.05;94778.38;5015721;28;20310;-82
2023/06/18 11:08:04;;;;;;;6.78;5.70;;;;;;;21.32;81.62;94767.69;5015649;28;20171;-84
2023/06/18 11:10:34;;;;;;;6.88;5.88;;;;;;;21.41;82.96;94775.91;5013152;28;20688;-85
2023/06/18 11:13:03;;;;;;;8.50;5.72;;;;;;;21.19;82.24;94768.28;5015535;28;20712;-88
2023/06/18 11:15:29;;;;;;;6.53;5.72;;;;;;;21.25;84.41;94777.91;5015482;28;20172;-87